createdAt,value
2017-12-17T00:00:11.711Z,21.00
2017-12-17T00:02:39.312Z,20.77
2017-12-17T00:05:06.963Z,21.17
2017-12-17T00:07:34.579Z,20.17
2017-12-17T00:10:02.187Z,20.77
2017-12-17T00:12:29.753Z,21.40
2017-12-17T00:14:58.100Z,19.80
2017-12-17T00:17:25.651Z,20.70
2017-12-17T00:19:53.262Z,22.83
2017-12-17T00:22:20.900Z,20.90
2017-12-17T00:24:48.475Z,19.80
2017-12-17T00:27:16.024Z,19.80
2017-12-17T00:29:43.590Z,20.07
2017-12-17T00:32:11.203Z,21.47
2017-12-17T00:34:38.720Z,21.20
2017-12-17T00:37:06.273Z,19.57
2017-12-17T00:39:33.818Z,20.40
2017-12-17T00:42:01.406Z,21.17
2017-12-17T00:44:28.994Z,20.30
2017-12-17T00:46:56.563Z,20.60
2017-12-17T00:49:24.294Z,19.30
2017-12-17T00:51:51.871Z,19.47
2017-12-17T00:54:19.472Z,20.07
2017-12-17T00:56:47.017Z,20.27
2017-12-17T00:59:14.587Z,20.30
2017-12-17T01:01:43.019Z,18.70
2017-12-17T01:04:10.634Z,19.83
2017-12-17T01:06:38.212Z,18.60
2017-12-17T01:09:05.738Z,18.00
2017-12-17T01:11:33.301Z,18.80
2017-12-17T01:14:00.847Z,20.87
2017-12-17T01:16:28.451Z,20.67
2017-12-17T01:18:56.019Z,19.80
2017-12-17T01:21:23.623Z,18.53
2017-12-17T01:23:51.139Z,20.20
2017-12-17T01:26:18.669Z,20.33
2017-12-17T01:28:46.255Z,19.77
2017-12-17T01:31:13.798Z,20.40
2017-12-17T01:33:41.358Z,20.53
2017-12-17T01:36:08.935Z,19.23
2017-12-17T01:38:36.482Z,20.47
2017-12-17T01:41:04.092Z,19.43
2017-12-17T01:43:31.679Z,19.47
2017-12-17T01:45:59.276Z,19.03
2017-12-17T01:48:26.827Z,18.30
2017-12-17T01:50:54.406Z,20.03
2017-12-17T01:53:21.988Z,19.97
2017-12-17T01:55:49.553Z,20.00
2017-12-17T01:58:17.191Z,19.50
2017-12-17T02:00:44.905Z,19.47
2017-12-17T02:03:12.468Z,19.07
2017-12-17T02:05:40.079Z,17.83
2017-12-17T02:08:07.660Z,18.50
2017-12-17T02:10:35.274Z,18.60
2017-12-17T02:13:02.861Z,19.33
2017-12-17T02:15:31.765Z,18.70
2017-12-17T02:18:00.145Z,18.07
2017-12-17T02:20:28.513Z,17.57
2017-12-17T02:22:56.119Z,18.10
2017-12-17T02:25:23.691Z,17.50
2017-12-17T02:27:51.265Z,18.80
2017-12-17T02:30:18.871Z,19.27
2017-12-17T02:32:46.472Z,17.77
2017-12-17T02:35:14.047Z,18.27
2017-12-17T02:37:41.620Z,17.73
2017-12-17T02:40:09.182Z,19.40
2017-12-17T02:42:36.792Z,17.93
2017-12-17T02:45:06.060Z,17.97
2017-12-17T02:47:34.105Z,18.80
2017-12-17T02:50:01.672Z,18.13
2017-12-17T02:52:29.225Z,18.73
2017-12-17T02:54:57.022Z,19.60
2017-12-17T02:57:24.651Z,26.73
2017-12-17T02:59:52.235Z,22.43
2017-12-17T03:02:19.787Z,19.60
2017-12-17T03:04:47.343Z,20.37
2017-12-17T03:07:14.912Z,18.50
2017-12-17T03:09:42.471Z,19.47
2017-12-17T03:12:10.053Z,21.60
2017-12-17T03:14:38.433Z,19.73
2017-12-17T03:17:06.823Z,20.77
2017-12-17T03:19:34.400Z,21.27
2017-12-17T03:22:01.984Z,20.20
2017-12-17T03:24:29.590Z,21.20
2017-12-17T03:26:57.967Z,20.70
2017-12-17T03:29:25.559Z,21.60
2017-12-17T03:31:53.643Z,22.87
2017-12-17T03:34:21.276Z,20.67
2017-12-17T03:36:48.832Z,21.70
2017-12-17T03:39:16.437Z,19.93
2017-12-17T03:41:44.031Z,22.27
2017-12-17T03:44:11.628Z,21.70
2017-12-17T03:46:39.174Z,20.83
2017-12-17T03:49:07.255Z,20.50
2017-12-17T03:51:34.838Z,22.23
2017-12-17T03:54:02.461Z,22.40
2017-12-17T03:56:30.833Z,22.10
2017-12-17T03:58:58.452Z,20.97
2017-12-17T04:01:26.040Z,23.10
2017-12-17T04:03:53.644Z,22.00
2017-12-17T04:06:21.275Z,21.33
2017-12-17T04:08:48.827Z,21.87
2017-12-17T04:11:16.481Z,21.33
2017-12-17T04:13:44.120Z,20.93
2017-12-17T04:16:11.677Z,19.67
2017-12-17T04:18:39.281Z,20.97
2017-12-17T04:21:06.882Z,20.33
2017-12-17T04:23:34.499Z,20.00
2017-12-17T04:26:02.086Z,18.33
2017-12-17T04:28:29.705Z,20.63
2017-12-17T04:30:57.257Z,20.50
2017-12-17T04:33:24.839Z,18.37
2017-12-17T04:35:52.459Z,17.63
2017-12-17T04:38:20.046Z,19.20
2017-12-17T04:40:47.604Z,18.97
2017-12-17T04:43:15.251Z,18.90
2017-12-17T04:45:44.469Z,18.17
2017-12-17T04:48:12.209Z,18.60
2017-12-17T04:50:39.747Z,18.17
2017-12-17T04:53:07.309Z,18.40
2017-12-17T04:55:35.681Z,18.00
2017-12-17T04:58:03.243Z,19.50
2017-12-17T05:00:30.851Z,20.03
2017-12-17T05:02:58.468Z,19.77
2017-12-17T05:05:26.004Z,20.07
2017-12-17T05:07:53.622Z,17.93
2017-12-17T05:10:21.150Z,18.70
2017-12-17T05:12:48.775Z,19.00
2017-12-17T05:15:16.363Z,17.60
2017-12-17T05:17:43.940Z,19.50
2017-12-17T05:20:11.552Z,20.03
2017-12-17T05:22:39.191Z,19.73
2017-12-17T05:25:06.791Z,19.67
2017-12-17T05:27:34.359Z,19.50
2017-12-17T05:30:01.927Z,19.97
2017-12-17T05:32:29.491Z,19.60
2017-12-17T05:34:57.152Z,18.53
2017-12-17T05:37:24.778Z,20.03
2017-12-17T05:39:52.344Z,20.63
2017-12-17T05:42:20.598Z,19.97
2017-12-17T05:44:48.161Z,19.83
2017-12-17T05:47:15.755Z,20.13
2017-12-17T05:49:43.352Z,19.77
2017-12-17T05:52:10.961Z,21.90
2017-12-17T05:54:38.519Z,20.40
2017-12-17T05:57:06.096Z,20.33
2017-12-17T05:59:33.639Z,20.90
2017-12-17T06:02:01.205Z,19.63
2017-12-17T06:04:28.820Z,19.00
2017-12-17T06:06:56.380Z,21.70
2017-12-17T06:09:23.969Z,21.67
2017-12-17T06:11:51.567Z,19.53
2017-12-17T06:14:19.164Z,19.53
2017-12-17T06:16:46.801Z,19.87
2017-12-17T06:19:14.412Z,19.80
2017-12-17T06:21:42.789Z,19.60
2017-12-17T06:24:11.172Z,18.37
2017-12-17T06:26:39.569Z,18.97
2017-12-17T06:29:07.115Z,19.70
2017-12-17T06:31:35.468Z,19.60
2017-12-17T06:34:03.065Z,19.33
2017-12-17T06:36:30.694Z,19.87
2017-12-17T06:38:59.048Z,19.90
2017-12-17T06:41:26.657Z,19.87
2017-12-17T06:43:55.639Z,20.97
2017-12-17T06:46:23.195Z,18.60
2017-12-17T06:48:50.804Z,18.70
2017-12-17T06:51:18.375Z,19.30
2017-12-17T06:53:46.003Z,18.40
2017-12-17T06:56:14.419Z,20.90
2017-12-17T06:58:41.985Z,18.97
2017-12-17T07:01:09.618Z,21.60
2017-12-17T07:03:37.227Z,20.43
2017-12-17T07:06:04.767Z,21.50
2017-12-17T07:08:32.324Z,22.03
2017-12-17T07:10:59.936Z,22.40
2017-12-17T07:13:28.295Z,21.73
2017-12-17T07:15:55.873Z,20.73
2017-12-17T07:18:23.455Z,20.57
2017-12-17T07:20:51.038Z,21.63
2017-12-17T07:23:18.595Z,19.87
2017-12-17T07:25:46.173Z,19.80
2017-12-17T07:28:13.813Z,21.97
2017-12-17T07:30:46.141Z,24.50
2017-12-17T07:33:14.068Z,20.27
2017-12-17T07:35:41.627Z,21.90
2017-12-17T07:38:09.186Z,18.87
2017-12-17T07:40:36.758Z,21.90
2017-12-17T07:43:04.326Z,21.00
2017-12-17T07:45:31.938Z,20.27
2017-12-17T07:47:59.523Z,23.60
2017-12-17T07:50:27.080Z,22.87
2017-12-17T07:52:54.730Z,19.40
2017-12-17T07:55:22.355Z,22.87
2017-12-17T07:57:49.913Z,19.83
2017-12-17T08:00:17.564Z,17.27
2017-12-17T08:02:45.985Z,16.70
2017-12-17T08:05:13.536Z,17.70
2017-12-17T08:07:41.867Z,15.60
2017-12-17T08:10:10.550Z,15.43
2017-12-17T08:12:38.131Z,16.67
2017-12-17T08:15:05.736Z,16.07
2017-12-17T08:17:33.358Z,16.17
2017-12-17T08:20:00.959Z,14.70
2017-12-17T08:22:28.554Z,14.80
2017-12-17T08:24:56.112Z,15.50
2017-12-17T08:27:24.334Z,14.43
2017-12-17T08:29:52.683Z,16.07
2017-12-17T08:32:20.272Z,14.90
2017-12-17T08:34:47.866Z,14.83
2017-12-17T08:37:16.186Z,14.97
2017-12-17T08:39:44.567Z,15.50
2017-12-17T08:42:12.808Z,15.17
2017-12-17T08:44:40.940Z,14.50
2017-12-17T08:47:09.160Z,16.67
2017-12-17T08:49:36.756Z,15.10
2017-12-17T08:52:04.357Z,14.43
2017-12-17T08:54:31.927Z,13.63
2017-12-17T08:56:59.492Z,14.77
2017-12-17T08:59:27.106Z,14.30
2017-12-17T09:01:57.262Z,13.40
2017-12-17T09:04:25.459Z,12.53
2017-12-17T09:06:53.048Z,14.10
2017-12-17T09:09:20.587Z,14.77
2017-12-17T09:11:48.175Z,13.47
2017-12-17T09:14:16.490Z,12.90
2017-12-17T09:16:44.245Z,12.73
2017-12-17T09:19:11.807Z,12.97
2017-12-17T09:21:39.437Z,12.03
2017-12-17T09:24:06.999Z,11.47
2017-12-17T09:26:35.319Z,12.27
2017-12-17T09:29:03.189Z,11.57
2017-12-17T09:31:30.734Z,10.63
2017-12-17T09:33:58.301Z,12.20
2017-12-17T09:36:25.931Z,10.97
2017-12-17T09:38:53.506Z,11.83
2017-12-17T09:41:21.070Z,11.30
2017-12-17T09:43:48.618Z,10.90
2017-12-17T09:46:17.050Z,9.57
2017-12-17T09:48:44.667Z,12.20
2017-12-17T09:51:12.329Z,10.20
2017-12-17T09:53:39.956Z,10.57
2017-12-17T09:56:07.545Z,10.50
2017-12-17T09:58:35.900Z,10.73
2017-12-17T10:01:03.518Z,9.50
2017-12-17T10:03:31.084Z,11.30
2017-12-17T10:05:58.676Z,10.33
2017-12-17T10:08:26.292Z,11.67
2017-12-17T10:10:53.908Z,11.67
2017-12-17T10:13:21.607Z,11.40
2017-12-17T10:15:49.175Z,9.97
2017-12-17T10:18:16.743Z,9.10
2017-12-17T10:20:44.308Z,9.40
2017-12-17T10:23:11.913Z,10.60
2017-12-17T10:25:40.073Z,10.83
2017-12-17T10:28:07.675Z,10.77
2017-12-17T10:30:35.350Z,10.27
2017-12-17T10:33:02.957Z,12.60
2017-12-17T10:35:31.264Z,11.30
2017-12-17T10:37:59.171Z,9.50
2017-12-17T10:40:27.530Z,10.90
2017-12-17T10:42:55.318Z,11.73
2017-12-17T10:45:23.303Z,9.13
2017-12-17T10:47:50.949Z,10.57
2017-12-17T10:50:19.337Z,10.97
2017-12-17T10:52:46.971Z,10.57
2017-12-17T10:55:14.651Z,9.73
2017-12-17T10:57:42.300Z,11.20
2017-12-17T11:00:09.923Z,10.57
2017-12-17T11:02:39.358Z,9.87
2017-12-17T11:05:07.798Z,9.83
2017-12-17T11:07:35.384Z,10.90
2017-12-17T11:10:03.762Z,9.57
2017-12-17T11:12:31.325Z,9.43
2017-12-17T11:14:59.033Z,11.43
2017-12-17T11:17:26.640Z,9.77
2017-12-17T11:19:54.998Z,10.00
2017-12-17T11:22:22.615Z,9.40
2017-12-17T11:24:50.262Z,7.93
2017-12-17T11:27:17.835Z,8.60
2017-12-17T11:29:45.402Z,9.03
2017-12-17T11:32:13.027Z,10.30
2017-12-17T11:34:41.383Z,10.17
2017-12-17T11:37:08.945Z,9.50
2017-12-17T11:39:37.229Z,9.20
2017-12-17T11:42:04.859Z,9.23
2017-12-17T11:44:32.849Z,8.77
2017-12-17T11:47:01.247Z,7.17
2017-12-17T11:49:29.097Z,8.20
2017-12-17T11:51:56.674Z,9.67
2017-12-17T11:54:24.272Z,8.60
2017-12-17T11:56:51.909Z,10.13
2017-12-17T11:59:19.525Z,10.73
2017-12-17T12:01:47.370Z,11.30
2017-12-17T12:04:14.968Z,10.90
2017-12-17T12:06:42.560Z,10.70
2017-12-17T12:11:44.067Z,10.80
2017-12-17T12:14:11.653Z,10.97
2017-12-17T12:16:39.318Z,11.83
2017-12-17T12:19:07.029Z,10.70
2017-12-17T12:21:34.641Z,9.90
2017-12-17T12:24:02.219Z,10.30
2017-12-17T12:26:30.576Z,10.73
2017-12-17T12:28:58.946Z,10.80
2017-12-17T12:31:26.578Z,10.97
2017-12-17T12:33:54.135Z,11.70
2017-12-17T12:36:21.699Z,12.03
2017-12-17T12:38:49.351Z,11.60
2017-12-17T12:41:16.983Z,11.47
2017-12-17T12:43:45.306Z,12.03
2017-12-17T12:46:13.612Z,10.80
2017-12-17T12:48:41.214Z,11.60
2017-12-17T12:51:08.811Z,10.93
2017-12-17T12:53:36.450Z,10.67
2017-12-17T12:56:04.109Z,11.37
2017-12-17T12:58:31.678Z,11.63
2017-12-17T13:00:59.323Z,12.30
2017-12-17T13:03:26.880Z,10.33
2017-12-17T13:05:54.477Z,11.03
2017-12-17T13:08:22.048Z,10.70
2017-12-17T13:10:51.138Z,10.40
2017-12-17T13:13:18.690Z,9.93
2017-12-17T13:15:46.519Z,9.40
2017-12-17T13:18:14.081Z,9.60
2017-12-17T13:20:41.644Z,9.30
2017-12-17T13:23:09.280Z,10.70
2017-12-17T13:25:37.819Z,8.93
2017-12-17T13:28:06.279Z,9.63
2017-12-17T13:30:33.927Z,10.10
2017-12-17T13:33:01.489Z,9.23
2017-12-17T13:35:29.062Z,9.13
2017-12-17T13:37:56.833Z,10.03
2017-12-17T13:40:24.409Z,9.10
2017-12-17T13:42:51.984Z,9.57
2017-12-17T13:45:19.855Z,9.17
2017-12-17T13:47:47.454Z,8.83
2017-12-17T13:50:15.030Z,8.93
2017-12-17T13:52:42.940Z,7.23
2017-12-17T13:55:11.144Z,7.90
2017-12-17T13:57:38.801Z,7.70
2017-12-17T14:00:06.443Z,6.67
2017-12-17T14:02:34.072Z,7.87
2017-12-17T14:05:01.781Z,8.50
2017-12-17T14:07:29.530Z,7.93
2017-12-17T14:09:57.145Z,8.27
2017-12-17T14:12:25.516Z,8.57
2017-12-17T14:14:53.144Z,8.20
2017-12-17T14:17:20.741Z,9.10
2017-12-17T14:19:48.993Z,9.13
2017-12-17T14:22:17.138Z,9.90
2017-12-17T14:24:44.848Z,9.47
2017-12-17T14:27:12.662Z,10.10
2017-12-17T14:29:40.225Z,10.50
2017-12-17T14:32:07.827Z,9.30
2017-12-17T14:34:38.162Z,10.70
2017-12-17T14:37:06.624Z,10.90
2017-12-17T14:39:34.793Z,11.43
2017-12-17T14:42:02.425Z,9.80
2017-12-17T14:44:30.551Z,10.77
2017-12-17T14:46:58.952Z,10.27
2017-12-17T14:49:26.537Z,11.50
2017-12-17T14:51:54.175Z,11.03
2017-12-17T14:54:22.531Z,11.93
2017-12-17T14:56:50.112Z,11.03
2017-12-17T14:59:18.651Z,12.07
2017-12-17T15:01:47.107Z,11.80
2017-12-17T15:04:14.773Z,11.30
2017-12-17T15:06:43.177Z,13.07
2017-12-17T15:09:10.740Z,12.73
2017-12-17T15:11:38.669Z,13.13
2017-12-17T15:14:06.311Z,12.03
2017-12-17T15:16:33.948Z,11.70
2017-12-17T15:19:01.550Z,15.10
2017-12-17T15:21:29.091Z,21.60
2017-12-17T15:23:57.479Z,26.77
2017-12-17T15:26:25.066Z,20.13
2017-12-17T15:28:52.678Z,19.90
2017-12-17T15:31:21.028Z,20.17
2017-12-17T15:33:48.638Z,23.37
2017-12-17T15:36:16.264Z,24.00
2017-12-17T15:38:45.966Z,23.27
2017-12-17T15:41:13.533Z,23.60
2017-12-17T15:43:41.149Z,17.93
2017-12-17T15:46:08.700Z,17.60
2017-12-17T15:48:36.328Z,17.40
2017-12-17T15:51:03.917Z,18.00
2017-12-17T15:53:31.521Z,14.77
2017-12-17T15:55:59.070Z,15.90
2017-12-17T15:58:26.678Z,13.60
2017-12-17T16:00:54.305Z,13.63
2017-12-17T16:03:22.838Z,13.47
2017-12-17T16:05:50.400Z,14.47
2017-12-17T16:08:18.776Z,14.30
2017-12-17T16:10:46.387Z,13.30
2017-12-17T16:13:13.982Z,16.63
2017-12-17T16:15:42.444Z,14.50
2017-12-17T16:18:10.015Z,13.63
2017-12-17T16:20:39.049Z,13.60
2017-12-17T16:23:06.817Z,15.83
2017-12-17T16:25:35.754Z,15.27
2017-12-17T16:28:04.246Z,16.50
2017-12-17T16:30:31.898Z,15.80
2017-12-17T16:32:59.508Z,16.37
2017-12-17T16:35:27.072Z,16.87
2017-12-17T16:37:54.660Z,14.30
2017-12-17T16:40:22.243Z,13.17
2017-12-17T16:42:49.807Z,13.67
2017-12-17T16:45:17.379Z,13.97
2017-12-17T16:47:44.966Z,14.23
2017-12-17T16:50:14.873Z,16.70
2017-12-17T16:52:44.479Z,13.40
2017-12-17T16:55:13.179Z,14.93
2017-12-17T16:57:42.538Z,13.90
2017-12-17T17:00:11.622Z,13.80
2017-12-17T17:02:39.382Z,14.20
2017-12-17T17:05:07.035Z,15.53
2017-12-17T17:07:34.632Z,14.33
2017-12-17T17:10:02.283Z,13.93
2017-12-17T17:12:29.906Z,15.00
2017-12-17T17:14:57.477Z,13.57
2017-12-17T17:17:25.106Z,13.97
2017-12-17T17:19:52.660Z,14.30
2017-12-17T17:22:20.500Z,18.97
2017-12-17T17:24:48.215Z,16.30
2017-12-17T17:27:15.757Z,15.40
2017-12-17T17:29:44.298Z,13.93
2017-12-17T17:32:12.928Z,14.23
2017-12-17T17:34:40.521Z,14.87
2017-12-17T17:37:08.078Z,14.00
2017-12-17T17:39:35.644Z,13.23
2017-12-17T17:42:03.266Z,12.47
2017-12-17T17:44:30.992Z,13.60
2017-12-17T17:46:58.700Z,14.20
2017-12-17T17:49:26.309Z,13.17
2017-12-17T17:51:53.912Z,14.37
2017-12-17T17:54:23.090Z,12.23
2017-12-17T17:56:50.684Z,12.63
2017-12-17T17:59:18.269Z,13.10
2017-12-17T18:01:45.909Z,13.10
2017-12-17T18:04:13.520Z,11.40
2017-12-17T18:06:41.360Z,12.57
2017-12-17T18:09:08.917Z,14.03
2017-12-17T18:11:36.529Z,13.77
2017-12-17T18:14:04.073Z,12.70
2017-12-17T18:16:31.627Z,13.50
2017-12-17T18:18:59.219Z,13.37
2017-12-17T18:21:27.593Z,12.37
2017-12-17T18:23:57.916Z,11.70
2017-12-17T18:26:26.328Z,10.00
2017-12-17T18:28:53.855Z,9.67
2017-12-17T18:31:22.136Z,10.90
2017-12-17T18:33:49.726Z,11.50
2017-12-17T18:36:17.265Z,11.03
2017-12-17T18:38:44.834Z,12.20
2017-12-17T18:41:12.414Z,11.33
2017-12-17T18:43:39.950Z,12.10
2017-12-17T18:46:07.972Z,11.37
2017-12-17T18:48:36.479Z,10.67
2017-12-17T18:51:04.047Z,11.47
2017-12-17T18:53:32.348Z,13.60
2017-12-17T18:56:00.203Z,12.43
2017-12-17T18:58:27.758Z,12.30
2017-12-17T19:00:56.141Z,12.40
2017-12-17T19:03:23.700Z,12.80
2017-12-17T19:05:53.270Z,12.50
2017-12-17T19:08:20.839Z,12.87
2017-12-17T19:10:49.068Z,15.80
2017-12-17T19:13:17.139Z,14.13
2017-12-17T19:15:45.131Z,13.20
2017-12-17T19:18:12.772Z,13.40
2017-12-17T19:20:41.111Z,13.70
2017-12-17T19:23:09.985Z,13.70
2017-12-17T19:25:37.632Z,13.40
2017-12-17T19:28:05.958Z,13.40
2017-12-17T19:30:34.340Z,13.30
2017-12-17T19:33:01.973Z,13.83
2017-12-17T19:35:31.531Z,14.37
2017-12-17T19:37:59.082Z,14.30
2017-12-17T19:40:26.641Z,11.63
2017-12-17T19:42:55.040Z,13.23
2017-12-17T19:45:22.578Z,12.90
2017-12-17T19:47:50.565Z,12.00
2017-12-17T20:03:13.989Z,12.80
2017-12-17T20:05:42.677Z,12.67
2017-12-17T20:08:10.987Z,14.40
2017-12-17T20:10:40.025Z,13.90
2017-12-17T20:13:08.584Z,17.57
2017-12-17T20:15:36.180Z,18.00
2017-12-17T20:18:04.558Z,16.80
2017-12-17T20:20:33.917Z,15.27
2017-12-17T20:23:03.484Z,16.60
2017-12-17T20:25:31.739Z,15.20
2017-12-17T20:27:59.471Z,13.87
2017-12-17T20:30:27.049Z,14.60
2017-12-17T20:32:54.785Z,16.60
2017-12-17T20:35:22.961Z,16.10
2017-12-17T20:37:51.029Z,16.40
2017-12-17T20:40:18.620Z,13.60
2017-12-17T20:42:46.211Z,14.40
2017-12-17T20:45:14.636Z,15.57
2017-12-17T20:47:42.719Z,14.73
2017-12-17T20:50:11.958Z,15.77
2017-12-17T20:52:40.345Z,15.40
2017-12-17T20:55:09.431Z,14.40
2017-12-17T20:57:37.044Z,14.00
2017-12-17T21:00:05.386Z,13.13
2017-12-17T21:02:33.201Z,14.17
2017-12-17T21:05:00.793Z,13.70
2017-12-17T21:07:29.228Z,12.77
2017-12-17T21:09:56.817Z,13.37
2017-12-17T21:12:24.991Z,12.73
2017-12-17T21:14:52.565Z,12.67
2017-12-17T21:17:20.916Z,12.30
2017-12-17T21:19:49.666Z,11.80
2017-12-17T21:22:18.058Z,12.03
2017-12-17T21:24:46.133Z,12.20
2017-12-17T21:27:13.704Z,11.87
2017-12-17T21:29:41.235Z,11.20
2017-12-17T21:32:08.836Z,10.57
2017-12-17T21:34:36.404Z,11.10
2017-12-17T21:37:04.566Z,10.53
2017-12-17T21:39:32.700Z,10.60
2017-12-17T21:42:01.068Z,10.20
2017-12-17T21:44:29.404Z,10.60
2017-12-17T21:46:56.956Z,10.13
2017-12-17T21:49:24.505Z,9.30
2017-12-17T21:51:52.076Z,9.87
2017-12-17T21:54:19.624Z,9.43
2017-12-17T21:56:47.197Z,8.67
2017-12-17T21:59:14.935Z,8.20
2017-12-17T22:01:42.532Z,8.20
2017-12-17T22:04:10.578Z,7.70
2017-12-17T22:06:38.877Z,7.47
2017-12-17T22:09:06.442Z,7.33
2017-12-17T22:11:34.027Z,7.70
2017-12-17T22:14:01.618Z,6.53
2017-12-17T22:16:29.915Z,7.13
2017-12-17T22:18:57.447Z,7.17
2017-12-17T22:21:25.706Z,7.10
2017-12-17T22:23:54.753Z,8.13
2017-12-17T22:26:22.316Z,6.90
2017-12-17T22:28:49.885Z,6.20
2017-12-17T22:31:19.155Z,6.37
2017-12-17T22:33:47.102Z,5.23
2017-12-17T22:36:15.454Z,4.73
2017-12-17T22:38:43.020Z,5.00
2017-12-17T22:41:11.009Z,4.93
2017-12-17T22:43:38.570Z,4.47
2017-12-17T22:46:06.922Z,4.33
2017-12-17T22:48:35.603Z,4.43
2017-12-17T22:51:04.309Z,3.70
2017-12-17T22:53:31.908Z,3.80
2017-12-17T22:55:59.438Z,4.20
2017-12-17T22:58:28.652Z,4.07
2017-12-17T23:00:57.851Z,3.73
2017-12-17T23:03:25.428Z,2.80
2017-12-17T23:05:53.004Z,3.27
2017-12-17T23:08:20.621Z,3.23
2017-12-17T23:10:48.270Z,4.40
2017-12-17T23:13:16.680Z,3.47
2017-12-17T23:15:44.216Z,3.20
2017-12-17T23:18:12.732Z,3.50
2017-12-17T23:20:41.233Z,3.60
2017-12-17T23:25:41.196Z,2.90
2017-12-17T23:28:08.770Z,2.90
2017-12-17T23:30:38.770Z,2.80
2017-12-17T23:33:06.422Z,3.30
2017-12-17T23:35:33.978Z,2.57
2017-12-17T23:38:01.582Z,2.83
2017-12-17T23:40:29.112Z,2.53
2017-12-17T23:43:00.386Z,2.90
2017-12-17T23:45:30.421Z,2.67
2017-12-17T23:47:59.483Z,2.60
